Metar værinformasjon fra luftfart     ENHD Haugesund Airport, Karmøy
Temperatur
9°C Temperatur
4°C Duggpunkt
71% Luftfuktighet



Vind
7 M/S
15 MPT
24 KM/T
13 KNP



340°
NNV
Nåværende forhold

Klart Klart
Trykk 1010.84 (hPa) - 29.85 (inHg)
Sikt 6 (mil) - 9.7 (km)
Flyplass
Flyplass-kode ENHD

Plassering: Haugesund Airport, Karmøy
Avstand: 15 (km)

Metar:
ENHD 122120Z AUTO 34013KT 9999 NCD 09/04 Q1011

Tid: 12-06-2024 23:20 CEST